Time;durP1;ratioP1;P1;durP2;ratioP2;P2;SDS_P1;SDS_P2;PMS_P1;PMS_P2;Temp;Humidity;BMP_temperature;BMP_pressure;BME280_temperature;BME280_humidity;BME280_pressure;Samples;Min_cycle;Max_cycle;Signal;HPM_P1;HPM_P2
2022/04/15 00:01:55;;;;;;;6.73;5.87;;;15.10;91.60;;;;;;6099723;23;20437;-81
2022/04/15 00:04:22;;;;;;;8.77;5.10;;;15.10;92.00;;;;;;6102032;23;20408;-80
2022/04/15 00:06:48;;;;;;;6.57;5.83;;;15.10;92.30;;;;;;6100067;23;20467;-81
2022/04/15 00:09:15;;;;;;;6.57;5.10;;;15.00;92.60;;;;;;6100127;23;20440;-81
2022/04/15 00:11:44;;;;;;;10.70;6.40;;;15.10;93.00;;;;;;6120665;23;20409;-81
2022/04/15 00:14:11;;;;;;;7.77;6.13;;;15.10;93.00;;;;;;6122708;23;20416;-78
2022/04/15 00:16:43;;;;;;;6.70;5.83;;;15.20;93.00;;;;;;6120575;23;20407;-79
2022/04/15 00:19:11;;;;;;;6.00;4.50;;;15.10;92.80;;;;;;6113209;23;20385;-79
2022/04/15 00:21:37;;;;;;;7.33;6.00;;;15.20;93.00;;;;;;6116577;23;20491;-80
2022/04/15 00:24:05;;;;;;;6.50;5.73;;;15.20;93.00;;;;;;6111089;23;20404;-82
2022/04/15 00:26:32;;;;;;;7.43;6.10;;;15.30;93.00;;;;;;6111575;23;20420;-78
2022/04/15 00:28:58;;;;;;;6.03;5.40;;;15.40;92.90;;;;;;6102754;23;20409;-81
2022/04/15 00:31:25;;;;;;;7.43;5.23;;;15.40;92.80;;;;;;6110304;23;20440;-79
2022/04/15 00:33:53;;;;;;;6.10;4.50;;;15.40;92.70;;;;;;6115890;23;20437;-78
2022/04/15 00:36:20;;;;;;;6.73;5.10;;;15.40;92.70;;;;;;6115225;23;20948;-80
2022/04/15 00:38:47;;;;;;;9.07;6.10;;;15.40;92.60;;;;;;6109527;23;20495;-82
2022/04/15 00:41:15;;;;;;;5.40;4.57;;;15.40;93.00;;;;;;6106544;23;20427;-82
2022/04/15 00:43:42;;;;;;;6.93;5.20;;;15.40;93.10;;;;;;6102604;23;20432;-82
2022/04/15 00:46:08;;;;;;;5.73;5.13;;;15.40;93.00;;;;;;6102745;23;20444;-81
2022/04/15 00:48:36;;;;;;;6.30;5.40;;;15.40;92.90;;;;;;6101416;23;20405;-82
2022/04/15 00:51:05;;;;;;;5.70;5.13;;;15.40;93.00;;;;;;6100563;23;20431;-81
2022/04/15 00:53:32;;;;;;;7.33;5.53;;;15.40;93.00;;;;;;6100743;23;20802;-82
2022/04/15 00:56:01;;;;;;;7.50;5.53;;;15.40;92.90;;;;;;6101447;23;20412;-81
2022/04/15 00:58:29;;;;;;;5.83;5.10;;;15.40;92.80;;;;;;6100384;23;20504;-82
2022/04/15 01:00:57;;;;;;;6.50;5.90;;;15.50;92.90;;;;;;6101344;23;20417;-81
2022/04/15 01:03:24;;;;;;;9.37;5.83;;;15.50;92.80;;;;;;6103286;23;20429;-80
2022/04/15 01:05:55;;;;;;;6.93;5.90;;;15.50;92.70;;;;;;6105535;23;20479;-82
2022/04/15 01:08:26;;;;;;;6.77;6.17;;;15.50;92.70;;;;;;6100395;23;20413;-82
2022/04/15 01:10:55;;;;;;;5.43;4.50;;;15.50;92.70;;;;;;6100171;23;20488;-82
2022/04/15 01:13:24;;;;;;;5.80;5.30;;;15.50;92.70;;;;;;6099661;23;20467;-81
2022/04/15 01:15:53;;;;;;;5.47;5.00;;;15.50;92.70;;;;;;6104031;23;20797;-82
2022/04/15 01:18:20;;;;;;;6.47;5.80;;;15.50;92.80;;;;;;6099836;23;20734;-81
2022/04/15 01:20:49;;;;;;;8.80;5.87;;;15.50;92.70;;;;;;6100455;23;20717;-79
2022/04/15 01:23:17;;;;;;;6.53;5.90;;;15.50;92.80;;;;;;6112529;23;20456;-80
2022/04/15 01:25:44;;;;;;;7.97;6.10;;;15.50;92.80;;;;;;6110269;23;20404;-79
2022/04/15 01:28:11;;;;;;;6.73;5.83;;;15.50;93.00;;;;;;6101324;23;20511;-81
2022/04/15 01:30:38;;;;;;;9.60;5.23;;;15.50;93.10;;;;;;6102445;23;20408;-80
2022/04/15 01:33:04;;;;;;;7.60;5.20;;;15.50;93.30;;;;;;6107708;23;20432;-79
2022/04/15 01:35:33;;;;;;;6.20;5.60;;;15.40;93.60;;;;;;6108083;23;20409;-82
2022/04/15 01:38:02;;;;;;;8.00;7.20;;;15.30;94.10;;;;;;6110593;23;20440;-81
2022/04/15 01:40:30;;;;;;;6.93;6.23;;;15.20;94.50;;;;;;6105507;23;20884;-82
2022/04/15 01:42:57;;;;;;;6.77;6.07;;;15.20;94.70;;;;;;6100829;23;20431;-82
2022/04/15 01:45:23;;;;;;;8.33;5.70;;;15.20;94.70;;;;;;6101755;23;20475;-82
2022/04/15 01:47:52;;;;;;;7.53;5.57;;;15.20;94.70;;;;;;6100226;23;20451;-82
2022/04/15 01:50:18;;;;;;;6.97;6.27;;;15.20;94.90;;;;;;6099810;23;20896;-81
2022/04/15 01:52:45;;;;;;;7.70;6.60;;;15.20;95.00;;;;;;6099506;23;20495;-82
2022/04/15 01:55:12;;;;;;;6.47;5.97;;;15.10;94.90;;;;;;6097914;23;20412;-83
2022/04/15 01:57:40;;;;;;;7.23;5.70;;;15.20;95.00;;;;;;6099535;23;20605;-82
2022/04/15 02:00:08;;;;;;;6.47;5.10;;;15.20;94.90;;;;;;6101343;23;20460;-82
2022/04/15 02:02:34;;;;;;;6.53;5.83;;;15.20;94.90;;;;;;6100141;23;20808;-80
2022/04/15 02:05:01;;;;;;;7.57;5.80;;;15.10;94.90;;;;;;6100191;23;20412;-82
2022/04/15 02:07:28;;;;;;;7.90;7.20;;;15.10;95.00;;;;;;6101445;23;20471;-80
2022/04/15 02:09:55;;;;;;;7.47;6.63;;;15.10;95.00;;;;;;6113203;23;20411;-82
2022/04/15 02:12:21;;;;;;;7.33;5.83;;;15.10;95.20;;;;;;6100445;23;20424;-82
2022/04/15 02:14:49;;;;;;;7.67;6.70;;;15.00;95.30;;;;;;6097652;23;20413;-82
2022/04/15 02:17:17;;;;;;;6.57;5.97;;;14.90;95.50;;;;;;6097919;23;20468;-82
2022/04/15 02:19:44;;;;;;;6.93;5.30;;;14.90;95.70;;;;;;6097269;23;20431;-82
2022/04/15 02:22:10;;;;;;;11.63;6.87;;;14.90;96.00;;;;;;6097240;23;20755;-82
2022/04/15 02:24:37;;;;;;;7.13;6.43;;;14.90;96.30;;;;;;6097594;23;20409;-82
2022/04/15 02:27:04;;;;;;;7.50;6.90;;;14.90;96.30;;;;;;6097965;23;20440;-82
2022/04/15 02:29:32;;;;;;;6.87;6.27;;;14.80;96.40;;;;;;6097201;23;20413;-82
2022/04/15 02:32:00;;;;;;;8.17;7.30;;;14.80;96.40;;;;;;6096946;23;20965;-82
2022/04/15 02:34:27;;;;;;;6.50;5.53;;;14.80;96.50;;;;;;6098276;23;20783;-79
2022/04/15 02:36:53;;;;;;;10.20;6.07;;;14.70;97.10;;;;;;6098002;23;20951;-81
2022/04/15 02:39:20;;;;;;;7.50;6.30;;;14.70;97.60;;;;;;6099915;23;20404;-82
2022/04/15 02:41:54;;;;;;;7.20;6.20;;;14.70;97.80;;;;;;6102117;23;20411;-83
2022/04/15 02:44:21;;;;;;;6.43;5.20;;;14.70;98.10;;;;;;6111427;23;20466;-82
2022/04/15 02:46:47;;;;;;;9.93;6.87;;;14.70;98.10;;;;;;6102526;23;20975;-82
2022/04/15 02:49:16;;;;;;;7.20;6.40;;;14.70;98.10;;;;;;6102615;23;20413;-81
2022/04/15 02:51:42;;;;;;;7.50;6.90;;;14.70;98.10;;;;;;6098922;23;20458;-82
2022/04/15 02:54:09;;;;;;;11.10;6.73;;;14.60;98.20;;;;;;6098952;23;20407;-82
2022/04/15 02:56:36;;;;;;;6.93;6.37;;;14.60;98.40;;;;;;6102845;23;20815;-81
2022/04/15 02:59:02;;;;;;;7.43;6.03;;;14.60;98.40;;;;;;6111276;23;20388;-80
2022/04/15 03:01:29;;;;;;;9.73;7.13;;;14.60;98.60;;;;;;6101026;23;20411;-82
2022/04/15 03:03:56;;;;;;;8.53;6.53;;;14.50;98.70;;;;;;6101850;23;20436;-80
2022/04/15 03:06:24;;;;;;;9.20;7.87;;;14.50;99.00;;;;;;6100610;23;20412;-82
2022/04/15 03:08:50;;;;;;;7.60;6.90;;;14.40;99.30;;;;;;6108238;23;20440;-80
2022/04/15 03:11:17;;;;;;;7.80;6.50;;;14.30;99.80;;;;;;6111652;23;20408;-82
2022/04/15 03:13:44;;;;;;;10.30;6.70;;;14.20;99.90;;;;;;6104517;23;20435;-82
2022/04/15 03:16:11;;;;;;;9.20;7.83;;;14.10;99.90;;;;;;6103202;23;20455;-82
2022/04/15 03:18:38;;;;;;;7.30;6.70;;;14.10;99.90;;;;;;6101242;23;20906;-82
2022/04/15 03:21:04;;;;;;;7.40;6.70;;;14.00;99.90;;;;;;6100188;23;20405;-81
2022/04/15 03:23:32;;;;;;;7.90;7.10;;;14.00;99.90;;;;;;6098612;23;20952;-82
2022/04/15 03:25:59;;;;;;;10.50;8.40;;;14.00;99.90;;;;;;6098459;23;20416;-82
2022/04/15 03:28:26;;;;;;;9.40;6.63;;;14.00;99.90;;;;;;6098563;23;20444;-82
2022/04/15 03:30:53;;;;;;;7.87;7.07;;;13.90;99.90;;;;;;6098434;23;20418;-81
2022/04/15 03:33:19;;;;;;;7.13;6.40;;;13.90;99.90;;;;;;6098453;23;20442;-82
2022/04/15 03:35:46;;;;;;;7.87;7.07;;;13.90;99.90;;;;;;6101444;23;20415;-83
2022/04/15 03:38:12;;;;;;;12.73;7.30;;;13.80;99.90;;;;;;6107615;23;20401;-83
2022/04/15 03:40:40;;;;;;;8.97;7.40;;;13.70;99.90;;;;;;6107741;23;20419;-82
2022/04/15 03:43:07;;;;;;;7.70;6.50;;;13.60;99.90;;;;;;6106943;23;20438;-82
2022/04/15 03:45:34;;;;;;;7.27;6.67;;;13.70;99.90;;;;;;6107097;23;20411;-82
2022/04/15 03:48:01;;;;;;;7.50;6.70;;;13.60;99.90;;;;;;6110517;23;20444;-83
2022/04/15 03:50:27;;;;;;;9.00;6.00;;;13.60;99.90;;;;;;6118098;23;20404;-80
2022/04/15 03:52:55;;;;;;;9.00;8.07;;;13.50;99.90;;;;;;6116362;23;20521;-84
2022/04/15 03:55:24;;;;;;;8.63;7.40;;;13.50;99.90;;;;;;6102470;23;20437;-81
2022/04/15 03:57:52;;;;;;;9.83;6.63;;;13.50;99.90;;;;;;6111151;23;20412;-80
2022/04/15 04:00:21;;;;;;;9.97;7.07;;;13.50;99.90;;;;;;6106378;23;20411;-82
2022/04/15 04:02:49;;;;;;;8.87;7.97;;;13.40;99.90;;;;;;6098034;23;20467;-81
2022/04/15 04:05:16;;;;;;;9.20;7.90;;;13.40;99.90;;;;;;6098736;23;20415;-81
2022/04/15 04:07:44;;;;;;;7.60;6.90;;;13.40;99.90;;;;;;6099003;23;20463;-82
2022/04/15 04:10:12;;;;;;;7.20;6.60;;;13.40;99.90;;;;;;6097950;23;20746;-83
2022/04/15 04:12:39;;;;;;;8.43;7.17;;;13.40;99.90;;;;;;6097751;23;20800;-82
2022/04/15 04:15:08;;;;;;;9.53;6.50;;;13.30;99.90;;;;;;6100302;23;20418;-82
2022/04/15 04:17:35;;;;;;;8.83;7.53;;;13.30;99.90;;;;;;6109426;23;20454;-81
2022/04/15 04:20:03;;;;;;;8.57;7.37;;;13.20;99.90;;;;;;6101631;23;20443;-81
2022/04/15 04:22:30;;;;;;;9.37;8.37;;;13.20;99.90;;;;;;6112636;23;20455;-82
2022/04/15 04:24:58;;;;;;;12.37;7.70;;;13.10;99.90;;;;;;6121910;23;20409;-80
2022/04/15 04:27:25;;;;;;;8.63;7.80;;;13.10;99.90;;;;;;6122785;23;20429;-80
2022/04/15 04:29:52;;;;;;;7.97;7.20;;;13.00;99.90;;;;;;6102478;23;20792;-82
2022/04/15 04:32:20;;;;;;;12.43;8.83;;;13.00;99.90;;;;;;6101060;23;20455;-89
2022/04/15 04:34:48;;;;;;;8.83;7.57;;;12.90;99.90;;;;;;6130612;23;20389;-89
2022/04/15 04:37:14;;;;;;;8.90;8.00;;;12.90;99.90;;;;;;6129300;23;20922;-89
2022/04/15 04:39:41;;;;;;;8.97;8.07;;;12.90;99.90;;;;;;6126911;23;20418;-89
2022/04/15 04:42:08;;;;;;;9.33;7.20;;;12.80;99.90;;;;;;6122152;23;20428;-89
2022/04/15 04:44:38;;;;;;;8.67;7.80;;;12.80;99.90;;;;;;6097485;23;20724;-89
2022/04/15 04:47:06;;;;;;;9.20;7.10;;;12.80;99.90;;;;;;6100149;23;20415;-88
2022/04/15 04:49:35;;;;;;;8.80;7.27;;;12.80;99.90;;;;;;6098369;23;20912;-89
2022/04/15 04:52:02;;;;;;;9.10;7.90;;;12.90;99.90;;;;;;6115747;23;20394;-88
2022/04/15 04:54:30;;;;;;;11.60;7.37;;;12.90;99.90;;;;;;6118288;23;20943;-90
2022/04/15 04:56:57;;;;;;;8.93;7.67;;;13.00;99.90;;;;;;6097694;23;20421;-89
2022/04/15 04:59:25;;;;;;;8.13;7.27;;;13.10;99.90;;;;;;6098854;23;20412;-88
2022/04/15 05:01:52;;;;;;;9.50;8.40;;;13.10;99.90;;;;;;6097450;23;20421;-89
2022/04/15 05:04:19;;;;;;;8.37;7.57;;;13.20;99.90;;;;;;6098210;23;20411;-88
2022/04/15 05:06:47;;;;;;;10.27;7.27;;;13.30;99.90;;;;;;6110337;23;20417;-88
2022/04/15 05:09:13;;;;;;;7.43;6.73;;;13.50;99.90;;;;;;6124445;23;20453;-88
2022/04/15 05:11:40;;;;;;;8.50;7.23;;;13.80;99.90;;;;;;6116937;23;20407;-89
2022/04/15 05:14:07;;;;;;;9.20;8.30;;;14.00;99.90;;;;;;6101640;23;20428;-89
2022/04/15 05:16:34;;;;;;;12.17;7.47;;;14.20;99.90;;;;;;6097759;23;20411;-89
2022/04/15 05:19:01;;;;;;;8.07;7.27;;;14.30;99.90;;;;;;6097314;23;20408;-89
2022/04/15 05:21:27;;;;;;;10.33;7.30;;;14.30;99.90;;;;;;6097910;23;20408;-89
2022/04/15 05:23:55;;;;;;;8.60;7.70;;;14.30;99.90;;;;;;6098713;23;20433;-88
2022/04/15 05:26:23;;;;;;;8.83;8.13;;;14.20;99.90;;;;;;6114341;23;20489;-91
2022/04/15 05:28:49;;;;;;;9.93;8.03;;;14.10;99.90;;;;;;6102580;23;20440;-88
2022/04/15 05:31:16;;;;;;;10.13;8.43;;;14.10;99.90;;;;;;6096806;23;20432;-88
2022/04/15 05:33:43;;;;;;;8.10;7.33;;;14.10;99.90;;;;;;6097303;23;20436;-89
2022/04/15 05:36:09;;;;;;;8.73;7.00;;;14.10;99.90;;;;;;6120840;23;20411;-87
2022/04/15 05:38:36;;;;;;;8.57;7.87;;;14.10;99.90;;;;;;6123778;23;20393;-88
2022/04/15 05:41:06;;;;;;;10.13;8.70;;;14.10;99.90;;;;;;6111104;23;20439;-89
2022/04/15 05:43:33;;;;;;;8.90;7.77;;;14.10;99.90;;;;;;6100157;23;20434;-88
2022/04/15 05:46:00;;;;;;;11.53;8.70;;;14.10;99.90;;;;;;6115903;23;20399;-87
2022/04/15 05:48:26;;;;;;;8.40;7.57;;;14.20;99.90;;;;;;6116263;23;20432;-89
2022/04/15 05:50:53;;;;;;;9.30;7.80;;;14.30;99.90;;;;;;6102296;23;20415;-89
2022/04/15 05:53:20;;;;;;;10.87;9.60;;;14.40;99.90;;;;;;6098693;23;20435;-90
2022/04/15 05:55:47;;;;;;;9.17;8.27;;;14.40;99.90;;;;;;6097825;23;20408;-89
2022/04/15 05:58:15;;;;;;;8.67;7.77;;;14.50;99.90;;;;;;6107588;23;20404;-87
2022/04/15 06:00:42;;;;;;;10.33;8.83;;;14.60;99.90;;;;;;6118413;23;20389;-87
2022/04/15 06:03:08;;;;;;;9.73;7.67;;;14.70;99.90;;;;;;6114861;23;20492;-88
2022/04/15 06:05:35;;;;;;;10.93;7.90;;;14.70;99.90;;;;;;6115867;23;20487;-88
2022/04/15 06:08:02;;;;;;;9.00;8.10;;;14.70;99.90;;;;;;6120450;23;20471;-87
2022/04/15 06:10:30;;;;;;;10.40;8.60;;;14.90;99.90;;;;;;6125627;23;20418;-88
2022/04/15 06:13:02;;;;;;;9.77;8.40;;;15.00;99.90;;;;;;6118084;23;20947;-88
2022/04/15 06:15:32;;;;;;;11.80;8.40;;;15.20;99.90;;;;;;6113023;23;20420;-87
2022/04/15 06:17:59;;;;;;;8.80;8.00;;;15.50;99.90;;;;;;6124185;23;20408;-89
2022/04/15 06:20:26;;;;;;;11.10;7.93;;;15.90;99.90;;;;;;6113469;23;20392;-88
2022/04/15 06:22:53;;;;;;;9.33;8.43;;;16.10;99.30;;;;;;6118532;23;20421;-87
2022/04/15 06:25:20;;;;;;;10.30;8.30;;;16.30;98.90;;;;;;6125954;23;20399;-88
2022/04/15 06:27:47;;;;;;;7.97;7.17;;;16.60;98.50;;;;;;6125701;23;20419;-89
2022/04/15 06:30:14;;;;;;;8.37;6.40;;;17.20;96.90;;;;;;6118636;23;20410;-89
2022/04/15 06:32:42;;;;;;;9.93;7.70;;;17.90;95.80;;;;;;6105183;23;20432;-89
2022/04/15 06:35:09;;;;;;;9.10;8.30;;;18.40;93.90;;;;;;6104862;23;20747;-89
2022/04/15 06:37:36;;;;;;;8.23;7.17;;;19.00;93.10;;;;;;6101939;23;20805;-89
2022/04/15 06:40:03;;;;;;;7.30;6.70;;;19.80;91.10;;;;;;6102078;23;20905;-89
2022/04/15 06:42:31;;;;;;;9.10;7.87;;;20.40;89.50;;;;;;6119242;23;20432;-88
2022/04/15 06:44:58;;;;;;;7.73;7.10;;;20.60;86.50;;;;;;6118477;23;20417;-89
2022/04/15 06:47:25;;;;;;;9.10;8.07;;;20.90;84.90;;;;;;6118132;23;20393;-88
2022/04/15 06:49:53;;;;;;;9.87;8.87;;;21.30;83.00;;;;;;6114292;23;20458;-88
2022/04/15 06:52:20;;;;;;;8.70;7.87;;;21.70;81.40;;;;;;6116163;23;20410;-89
2022/04/15 06:54:47;;;;;;;9.10;8.30;;;22.20;79.50;;;;;;6121733;23;20411;-89
2022/04/15 06:57:13;;;;;;;9.73;8.20;;;22.70;76.70;;;;;;6113435;23;20407;-89
2022/04/15 06:59:40;;;;;;;9.77;8.00;;;22.80;74.50;;;;;;6104260;23;20406;-89
2022/04/15 07:02:07;;;;;;;8.93;8.03;;;23.50;73.20;;;;;;6110156;23;20442;-90
2022/04/15 07:04:35;;;;;;;9.43;8.43;;;24.00;71.00;;;;;;6100548;23;20410;-89
2022/04/15 07:07:05;;;;;;;8.90;8.00;;;24.40;69.20;;;;;;6124474;23;20405;-89
2022/04/15 07:09:31;;;;;;;10.20;9.20;;;24.60;67.50;;;;;;6113600;23;20539;-90
2022/04/15 07:11:58;;;;;;;12.03;9.53;;;24.80;66.30;;;;;;6119926;23;20467;-89
2022/04/15 07:14:25;;;;;;;10.27;9.37;;;25.10;64.90;;;;;;6124652;23;20392;-89
2022/04/15 07:16:52;;;;;;;10.20;9.37;;;25.40;63.80;;;;;;6111014;23;20428;-87
2022/04/15 07:19:19;;;;;;;10.77;9.90;;;25.90;61.90;;;;;;6102703;23;20405;-87
2022/04/15 07:21:45;;;;;;;12.33;11.03;;;25.80;61.00;;;;;;6099231;23;20963;-87
2022/04/15 07:24:13;;;;;;;11.17;10.07;;;26.30;60.50;;;;;;6098683;23;20818;-90
2022/04/15 07:26:40;;;;;;;11.87;10.70;;;26.70;59.60;;;;;;6098482;23;20420;-88
2022/04/15 07:29:07;;;;;;;12.53;11.23;;;26.10;58.80;;;;;;6099149;23;20444;-90
2022/04/15 07:31:34;;;;;;;12.70;11.40;;;25.60;60.00;;;;;;6114778;23;20404;-90
2022/04/15 07:34:03;;;;;;;12.23;11.13;;;26.30;59.50;;;;;;6121692;23;20422;-89
2022/04/15 07:36:43;;;;;;;12.00;10.83;;;26.70;57.90;;;;;;6100458;23;20412;-89
2022/04/15 07:39:12;;;;;;;13.20;11.90;;;26.60;57.80;;;;;;6099850;23;20845;-89
2022/04/15 07:41:41;;;;;;;12.53;11.37;;;27.10;56.80;;;;;;6098743;23;20870;-89
2022/04/15 07:44:09;;;;;;;13.07;11.77;;;26.80;56.20;;;;;;6097876;23;20446;-88
2022/04/15 07:46:37;;;;;;;11.93;10.93;;;26.80;57.10;;;;;;6098961;23;20418;-89
2022/04/15 07:49:04;;;;;;;13.57;12.47;;;27.10;56.00;;;;;;6098895;23;20448;-89
2022/04/15 07:51:31;;;;;;;13.77;12.57;;;27.30;55.40;;;;;;6098501;23;20725;-89
2022/04/15 07:53:58;;;;;;;13.63;12.40;;;27.10;55.20;;;;;;6098219;23;20421;-89
2022/04/15 07:56:25;;;;;;;14.40;13.20;;;27.10;55.70;;;;;;6105998;23;20400;-88
2022/04/15 07:58:53;;;;;;;14.90;13.57;;;27.20;54.60;;;;;;6124411;23;20465;-88
2022/04/15 08:01:21;;;;;;;14.83;13.50;;;26.50;54.70;;;;;;6115558;23;20419;-89
2022/04/15 08:03:48;;;;;;;16.13;14.60;;;25.50;56.10;;;;;;6118201;23;20441;-88
2022/04/15 08:06:16;;;;;;;15.43;14.13;;;24.70;57.60;;;;;;6122891;23;20391;-89
2022/04/15 08:08:43;;;;;;;13.20;12.00;;;24.60;59.10;;;;;;6100519;23;20448;-90
2022/04/15 08:11:09;;;;;;;14.10;12.90;;;25.00;59.10;;;;;;6098015;23;20416;-89
2022/04/15 08:13:36;;;;;;;16.37;14.80;;;26.00;58.00;;;;;;6099443;23;20956;-88
2022/04/15 08:16:05;;;;;;;14.57;13.37;;;26.40;56.80;;;;;;6101238;23;20397;-89
2022/04/15 08:18:32;;;;;;;14.70;13.50;;;27.30;55.90;;;;;;6098629;23;20756;-89
2022/04/15 08:20:58;;;;;;;15.90;14.57;;;28.30;53.80;;;;;;6098469;23;20424;-89
2022/04/15 08:23:26;;;;;;;15.50;14.10;;;29.00;52.30;;;;;;6098653;23;20433;-89
2022/04/15 08:25:53;;;;;;;15.63;14.03;;;29.20;51.70;;;;;;6099389;23;20490;-89
2022/04/15 08:28:20;;;;;;;15.90;14.50;;;29.20;51.00;;;;;;6099379;23;20516;-89
2022/04/15 08:30:47;;;;;;;17.20;15.60;;;28.90;50.40;;;;;;6118480;23;20444;-89
2022/04/15 08:33:15;;;;;;;17.10;15.60;;;28.90;49.90;;;;;;6117412;23;20441;-90
2022/04/15 08:35:42;;;;;;;16.63;15.23;;;29.30;49.70;;;;;;6104575;23;20405;-90
2022/04/15 08:38:09;;;;;;;17.07;15.57;;;30.40;49.10;;;;;;6109233;23;20408;-87
2022/04/15 08:40:39;;;;;;;15.93;14.57;;;31.00;47.60;;;;;;6098483;23;20511;-87
2022/04/15 08:43:07;;;;;;;17.30;16.00;;;30.90;47.80;;;;;;6096541;23;20443;-87
2022/04/15 08:45:37;;;;;;;17.43;15.83;;;30.70;46.80;;;;;;6096361;23;20441;-87
2022/04/15 08:48:06;;;;;;;17.33;16.03;;;30.70;47.40;;;;;;6110173;23;20401;-88
2022/04/15 08:50:34;;;;;;;17.80;16.50;;;31.30;46.40;;;;;;6123621;23;20464;-86
2022/04/15 08:53:03;;;;;;;18.17;16.57;;;31.70;45.60;;;;;;6115320;23;20436;-88
2022/04/15 08:55:33;;;;;;;19.60;18.10;;;31.60;45.00;;;;;;6098996;23;20983;-88
2022/04/15 08:58:00;;;;;;;18.23;16.83;;;30.70;45.20;;;;;;6096573;23;20424;-88
2022/04/15 09:00:33;;;;;;;17.90;16.30;;;30.50;46.20;;;;;;6101838;23;20401;-86
2022/04/15 09:02:59;;;;;;;18.93;17.13;;;30.40;46.50;;;;;;6117058;23;20451;-88
2022/04/15 09:05:28;;;;;;;17.20;15.63;;;30.80;46.50;;;;;;6097726;23;20415;-86
2022/04/15 09:08:07;;;;;;;18.37;16.93;;;31.40;45.70;;;;;;6111957;23;20408;-89
2022/04/15 09:10:37;;;;;;;16.97;15.50;;;31.70;43.70;;;;;;6116460;23;20451;-84
2022/04/15 09:13:05;;;;;;;17.97;16.50;;;31.30;44.20;;;;;;6119158;23;20421;-86
2022/04/15 09:15:34;;;;;;;16.90;15.50;;;31.10;44.10;;;;;;6119932;23;20419;-86
2022/04/15 09:18:01;;;;;;;17.43;16.03;;;30.30;44.60;;;;;;6106332;23;20412;-87
2022/04/15 09:20:33;;;;;;;19.10;17.30;;;30.80;44.60;;;;;;6114573;23;20396;-86
2022/04/15 09:23:09;;;;;;;16.97;15.53;;;31.80;44.60;;;;;;6116922;23;20433;-87
2022/04/15 09:25:36;;;;;;;16.77;15.57;;;32.40;42.80;;;;;;6119449;23;20373;-88
2022/04/15 09:28:04;;;;;;;18.97;17.57;;;32.40;42.90;;;;;;6117916;23;20408;-87
2022/04/15 09:30:35;;;;;;;15.90;14.73;;;33.50;41.20;;;;;;6121129;23;20440;-88
2022/04/15 09:33:03;;;;;;;17.70;16.40;;;31.80;42.20;;;;;;6118020;23;20436;-88
2022/04/15 09:35:30;;;;;;;17.93;16.53;;;30.50;43.40;;;;;;6109685;23;20405;-88
2022/04/15 09:38:03;;;;;;;18.10;16.60;;;28.60;45.50;;;;;;6104576;23;20431;-86
2022/04/15 09:40:37;;;;;;;18.00;16.70;;;28.10;47.50;;;;;;6100406;23;20484;-86
2022/04/15 09:43:07;;;;;;;15.80;14.60;;;29.20;46.60;;;;;;6098089;23;20767;-87
2022/04/15 09:45:35;;;;;;;17.87;16.33;;;30.00;45.20;;;;;;6098859;23;20453;-87
2022/04/15 09:48:04;;;;;;;15.83;14.63;;;31.00;44.10;;;;;;6122407;23;20464;-87
2022/04/15 09:50:35;;;;;;;17.60;16.17;;;32.10;43.10;;;;;;6122227;23;20458;-85
2022/04/15 09:53:09;;;;;;;16.33;15.13;;;33.00;41.90;;;;;;6107240;23;20415;-87
2022/04/15 09:55:40;;;;;;;15.73;14.50;;;32.20;41.30;;;;;;6105178;23;20418;-88
2022/04/15 09:58:11;;;;;;;16.30;15.20;;;31.40;42.50;;;;;;6103799;23;20393;-85
2022/04/15 10:00:39;;;;;;;14.50;13.50;;;32.40;41.50;;;;;;6096457;23;20503;-86
2022/04/15 10:03:08;;;;;;;14.73;13.63;;;31.90;41.30;;;;;;6097182;23;20429;-89
2022/04/15 10:05:36;;;;;;;16.20;15.00;;;31.90;41.40;;;;;;6100244;23;20412;-88
2022/04/15 10:08:04;;;;;;;15.60;14.50;;;32.70;40.70;;;;;;6118594;23;20408;-86
2022/04/15 10:10:31;;;;;;;15.00;14.00;;;33.60;39.50;;;;;;6109624;23;20508;-88
2022/04/15 10:13:03;;;;;;;13.97;12.97;;;33.40;38.90;;;;;;6101417;23;20428;-88
2022/04/15 10:15:31;;;;;;;15.80;14.60;;;32.70;38.60;;;;;;6099629;23;20423;-86
2022/04/15 10:18:15;;;;;;;15.13;13.73;;;32.20;39.50;;;;;;6117848;23;20381;-88
2022/04/15 10:20:46;;;;;;;14.80;13.60;;;32.20;39.70;;;;;;6118774;23;20480;-87
2022/04/15 10:23:15;;;;;;;16.50;15.03;;;32.10;39.10;;;;;;6124000;23;20425;-88
2022/04/15 10:25:46;;;;;;;15.40;14.20;;;31.40;39.90;;;;;;6123122;23;20419;-90
2022/04/15 10:28:23;;;;;;;15.77;14.57;;;31.70;40.00;;;;;;6117274;23;20460;-89
2022/04/15 10:30:52;;;;;;;13.47;12.50;;;31.50;40.00;;;;;;6100760;23;20447;-86
2022/04/15 10:33:29;;;;;;;13.63;12.63;;;31.70;39.90;;;;;;6096010;23;20448;-87
2022/04/15 10:35:59;;;;;;;12.77;11.90;;;33.40;38.60;;;;;;6095739;23;20401;-88
2022/04/15 10:38:26;;;;;;;15.57;14.27;;;35.20;36.40;;;;;;6096682;23;20491;-88
2022/04/15 10:40:53;;;;;;;15.10;14.03;;;35.40;35.40;;;;;;6109006;23;20455;-86
2022/04/15 10:43:23;;;;;;;13.10;12.00;;;34.90;35.10;;;;;;6137553;23;20407;-86
2022/04/15 10:45:51;;;;;;;14.97;13.77;;;33.60;36.40;;;;;;6136014;23;20392;-84
2022/04/15 10:48:29;;;;;;;12.27;11.37;;;33.30;36.80;;;;;;6126975;23;20440;-82
2022/04/15 10:50:56;;;;;;;12.67;11.67;;;33.60;36.30;;;;;;6120335;23;20451;-87
2022/04/15 10:53:33;;;;;;;11.43;10.40;;;34.10;36.00;;;;;;6103531;23;20420;-84
2022/04/15 10:56:08;;;;;;;12.30;11.40;;;32.40;35.70;;;;;;6103550;23;20397;-80
2022/04/15 11:01:33;;;;;;;11.73;10.80;;;29.40;40.20;;;;;;6097583;23;20419;-81
2022/04/15 11:04:04;;;;;;;13.27;12.27;;;28.50;41.50;;;;;;6103290;23;20404;-80
2022/04/15 11:06:31;;;;;;;13.30;12.20;;;28.60;41.60;;;;;;6118156;23;20389;-84
2022/04/15 11:09:12;;;;;;;14.87;13.50;;;29.40;41.50;;;;;;6104711;23;20795;-84
2022/04/15 11:11:42;;;;;;;13.57;12.47;;;31.30;39.50;;;;;;6100784;23;20772;-83
2022/04/15 11:14:13;;;;;;;10.93;10.03;;;33.30;37.10;;;;;;6099772;23;20461;-82
2022/04/15 11:16:48;;;;;;;10.77;9.33;;;34.00;35.00;;;;;;6101777;23;20397;-82
2022/04/15 11:19:22;;;;;;;10.10;9.20;;;34.70;34.40;;;;;;6100558;23;20399;-86
2022/04/15 11:21:53;;;;;;;11.20;10.30;;;35.60;33.00;;;;;;6110310;23;20427;-84
2022/04/15 11:24:25;;;;;;;11.23;10.33;;;35.70;33.00;;;;;;6110825;23;20401;-83
2022/04/15 11:26:58;;;;;;;12.27;11.10;;;35.90;32.10;;;;;;6111264;23;20397;-83
2022/04/15 11:29:30;;;;;;;11.50;10.50;;;35.50;32.50;;;;;;6111297;23;20833;-83
2022/04/15 11:31:59;;;;;;;11.57;10.77;;;33.60;33.90;;;;;;6108659;23;20435;-82
2022/04/15 11:34:26;;;;;;;11.67;9.60;;;31.80;35.90;;;;;;6107915;23;20516;-83
2022/04/15 11:36:53;;;;;;;10.57;9.67;;;30.60;37.80;;;;;;6108934;23;20409;-82
2022/04/15 11:39:22;;;;;;;10.60;9.70;;;29.70;39.20;;;;;;6109743;23;20412;-83
2022/04/15 11:41:52;;;;;;;12.83;11.73;;;29.20;40.10;;;;;;6110855;23;20456;-82
2022/04/15 11:44:19;;;;;;;11.93;10.60;;;28.90;41.60;;;;;;6109586;23;20428;-83
2022/04/15 11:46:49;;;;;;;10.50;9.70;;;30.20;40.10;;;;;;6109665;23;20484;-84
2022/04/15 11:49:18;;;;;;;10.30;9.33;;;31.90;38.00;;;;;;6107664;23;20400;-84
2022/04/15 11:51:46;;;;;;;11.00;9.90;;;33.40;36.20;;;;;;6106044;23;20429;-83
2022/04/15 11:54:13;;;;;;;10.00;9.30;;;34.20;34.70;;;;;;6107560;23;20412;-84
2022/04/15 11:56:42;;;;;;;10.87;10.07;;;34.70;33.80;;;;;;6107125;23;20788;-82
2022/04/15 11:59:10;;;;;;;10.40;9.50;;;35.00;32.60;;;;;;6105605;23;20408;-82
2022/04/15 12:01:38;;;;;;;8.90;8.17;;;34.90;32.40;;;;;;6107408;23;20432;-84
2022/04/15 12:04:06;;;;;;;9.73;8.73;;;34.90;32.50;;;;;;6107522;23;20412;-84
2022/04/15 12:06:33;;;;;;;8.63;8.03;;;34.70;33.50;;;;;;6107122;23;20404;-82
2022/04/15 12:09:00;;;;;;;9.03;8.43;;;35.30;32.20;;;;;;6111911;23;20930;-81
2022/04/15 12:11:27;;;;;;;8.70;7.90;;;33.70;32.80;;;;;;6120100;23;20484;-81
2022/04/15 12:13:57;;;;;;;10.27;9.27;;;31.90;34.20;;;;;;6113735;23;20412;-82
2022/04/15 12:16:24;;;;;;;8.60;8.00;;;30.30;36.00;;;;;;6112337;23;20408;-83
2022/04/15 12:18:52;;;;;;;10.00;9.20;;;28.70;38.20;;;;;;6120264;23;20396;-83
2022/04/15 12:21:21;;;;;;;10.57;9.40;;;27.80;39.90;;;;;;6114768;23;20417;-83
2022/04/15 12:24:04;;;;;;;9.57;8.60;;;27.60;41.20;;;;;;6112962;23;20408;-83
2022/04/15 12:26:44;;;;;;;10.33;9.43;;;28.90;40.30;;;;;;6113680;23;20396;-81
2022/04/15 12:32:14;;;;;;;11.13;10.20;;;30.00;38.60;;;;;;6112804;23;20411;-83
2022/04/15 12:34:42;;;;;;;16.47;14.93;;;30.10;38.70;;;;;;6102392;23;20396;-82
2022/04/15 12:37:34;;;;;;;11.83;10.80;;;30.50;38.20;;;;;;6104778;23;20413;-81
2022/04/15 12:40:01;;;;;;;10.60;9.70;;;31.40;37.40;;;;;;6110386;23;20527;-82
2022/04/15 12:42:29;;;;;;;9.93;9.03;;;31.40;36.30;;;;;;6113871;23;20409;-83
2022/04/15 12:44:56;;;;;;;10.60;9.60;;;31.50;37.20;;;;;;6112857;23;20760;-83
2022/04/15 12:47:25;;;;;;;9.27;8.30;;;31.50;36.90;;;;;;6106262;23;20409;-82
2022/04/15 12:49:52;;;;;;;9.60;8.70;;;30.90;36.80;;;;;;6107692;23;20443;-81